Time;durP1;ratioP1;P1;durP2;ratioP2;P2;SDS_P1;SDS_P2;PMS_P1;PMS_P2;Temp;Humidity;BMP_temperature;BMP_pressure;BME280_temperature;BME280_humidity;BME280_pressure;Samples;Min_cycle;Max_cycle;Signal;HPM_P1;HPM_P2
2021/01/15 00:02:20;;;;;;;14.10;11.95;;;0.60;95.50;;;;;;5072289;28;20572;-82
2021/01/15 00:04:46;;;;;;;12.82;10.70;;;0.60;95.30;;;;;;5102045;28;20066;-82
2021/01/15 00:07:12;;;;;;;17.48;12.38;;;0.60;95.20;;;;;;5116380;27;20090;-82
2021/01/15 00:09:38;;;;;;;15.02;11.00;;;0.60;95.50;;;;;;5086813;28;20039;-82
2021/01/15 00:12:04;;;;;;;13.77;9.75;;;0.70;95.20;;;;;;5101660;28;20079;-83
2021/01/15 00:14:29;;;;;;;13.95;11.02;;;0.70;95.10;;;;;;5092583;28;20417;-82
2021/01/15 00:16:56;;;;;;;13.07;10.20;;;0.70;94.90;;;;;;5080587;28;20048;-83
2021/01/15 00:19:21;;;;;;;16.92;11.38;;;0.70;94.80;;;;;;5094627;28;20044;-82
2021/01/15 00:21:48;;;;;;;12.57;10.57;;;0.70;94.60;;;;;;5092578;28;20070;-82
2021/01/15 00:24:15;;;;;;;12.70;9.65;;;0.70;94.90;;;;;;5095350;28;20047;-82
2021/01/15 00:26:43;;;;;;;14.48;9.50;;;0.70;95.00;;;;;;5072713;28;20370;-82
2021/01/15 00:29:13;;;;;;;12.75;10.77;;;0.70;94.80;;;;;;5108125;27;20068;-82
2021/01/15 00:31:41;;;;;;;12.13;10.35;;;0.70;95.00;;;;;;5101109;28;20097;-82
2021/01/15 00:34:10;;;;;;;12.88;10.07;;;0.70;95.10;;;;;;5104119;27;20497;-82
2021/01/15 00:36:38;;;;;;;13.00;10.23;;;0.70;95.10;;;;;;5081335;28;20028;-82
2021/01/15 00:39:05;;;;;;;12.32;10.45;;;0.70;94.90;;;;;;5084860;28;20040;-83
2021/01/15 00:41:39;;;;;;;12.00;10.05;;;0.70;95.00;;;;;;5101716;28;20106;-82
2021/01/15 00:44:06;;;;;;;13.65;10.57;;;0.70;94.90;;;;;;5092996;28;20042;-82
2021/01/15 00:46:33;;;;;;;11.95;9.23;;;0.70;95.00;;;;;;5095582;28;20118;-82
2021/01/15 00:49:05;;;;;;;14.50;10.93;;;0.70;95.00;;;;;;5084768;28;20071;-82
2021/01/15 00:51:31;;;;;;;12.35;10.00;;;0.70;94.90;;;;;;5077348;28;20052;-81
2021/01/15 00:53:57;;;;;;;12.52;9.63;;;0.70;94.60;;;;;;5080626;28;20067;-82
2021/01/15 00:56:23;;;;;;;10.82;9.43;;;0.70;94.60;;;;;;5088374;27;20047;-82
2021/01/15 00:58:50;;;;;;;12.10;9.95;;;0.70;94.70;;;;;;5093580;28;20044;-82
2021/01/15 01:01:18;;;;;;;11.98;10.38;;;0.70;94.40;;;;;;5072846;28;20464;-82
2021/01/15 01:03:45;;;;;;;12.35;10.07;;;0.70;94.60;;;;;;5068883;28;20063;-83
2021/01/15 01:06:12;;;;;;;14.57;10.75;;;0.70;94.70;;;;;;5073967;28;20411;-82
2021/01/15 01:08:39;;;;;;;13.25;10.30;;;0.70;94.70;;;;;;5081408;28;20052;-82
2021/01/15 01:11:20;;;;;;;13.57;11.18;;;0.70;94.80;;;;;;5077422;28;20040;-82
2021/01/15 01:13:48;;;;;;;12.77;10.13;;;0.70;95.00;;;;;;5099339;28;20067;-82
2021/01/15 01:16:15;;;;;;;12.27;10.90;;;0.70;94.80;;;;;;5092186;28;20059;-82
2021/01/15 01:18:43;;;;;;;14.63;11.40;;;0.70;94.80;;;;;;5074047;28;20143;-82
2021/01/15 01:21:09;;;;;;;14.25;11.13;;;0.70;94.80;;;;;;5078319;28;20547;-81
2021/01/15 01:23:35;;;;;;;12.82;10.63;;;0.70;94.70;;;;;;5072824;28;20056;-82
2021/01/15 01:26:01;;;;;;;13.85;10.82;;;0.70;94.90;;;;;;5089720;27;20036;-82
2021/01/15 01:28:27;;;;;;;17.83;11.68;;;0.70;94.90;;;;;;5081627;28;20031;-82
2021/01/15 01:30:53;;;;;;;13.10;10.73;;;0.70;94.80;;;;;;5087899;28;20113;-82
2021/01/15 01:33:19;;;;;;;13.20;11.52;;;0.70;94.80;;;;;;5091506;28;20081;-83
2021/01/15 01:35:45;;;;;;;14.35;10.82;;;0.70;94.90;;;;;;5090651;28;20381;-82
2021/01/15 01:38:10;;;;;;;15.02;11.82;;;0.70;95.10;;;;;;5088334;28;20055;-82
2021/01/15 01:40:36;;;;;;;13.93;11.60;;;0.80;95.40;;;;;;5089936;28;20040;-82
2021/01/15 01:43:03;;;;;;;14.95;10.77;;;0.80;95.00;;;;;;5073316;28;20044;-83
2021/01/15 01:45:29;;;;;;;15.50;11.20;;;0.80;94.90;;;;;;5098978;28;20407;-82
2021/01/15 01:47:56;;;;;;;15.48;11.45;;;0.80;95.00;;;;;;5071619;28;20051;-82
2021/01/15 01:50:23;;;;;;;13.57;10.48;;;0.80;94.60;;;;;;5071284;28;20032;-82
2021/01/15 01:52:49;;;;;;;13.45;11.73;;;0.80;95.10;;;;;;5092192;27;20411;-82
2021/01/15 01:55:15;;;;;;;14.65;11.57;;;0.80;95.10;;;;;;5093286;28;20069;-82
2021/01/15 01:57:41;;;;;;;14.30;12.60;;;0.80;94.70;;;;;;5072514;28;20035;-82
2021/01/15 02:00:08;;;;;;;14.73;12.05;;;0.80;94.90;;;;;;5091633;28;20098;-82
2021/01/15 02:02:34;;;;;;;17.17;11.90;;;0.80;94.50;;;;;;5095138;28;20032;-82
2021/01/15 02:05:00;;;;;;;13.80;11.43;;;0.80;94.40;;;;;;5093078;28;20069;-82
2021/01/15 02:07:26;;;;;;;12.60;11.30;;;0.80;94.70;;;;;;5087417;28;20059;-83
2021/01/15 02:10:07;;;;;;;14.77;12.30;;;0.80;94.80;;;;;;5094957;28;20158;-82
2021/01/15 02:12:48;;;;;;;15.43;11.98;;;0.80;94.90;;;;;;5085918;28;20045;-82
2021/01/15 02:15:20;;;;;;;15.45;11.95;;;0.80;95.00;;;;;;5056002;28;20329;-82
2021/01/15 02:17:53;;;;;;;13.80;11.77;;;0.80;95.00;;;;;;5062358;28;20059;-82
2021/01/15 02:20:31;;;;;;;14.98;12.68;;;0.80;95.20;;;;;;5070199;28;20036;-82
2021/01/15 02:23:18;;;;;;;12.95;11.05;;;0.80;95.40;;;;;;5042581;28;20057;-82
2021/01/15 02:25:53;;;;;;;13.77;11.80;;;0.80;95.10;;;;;;5073876;28;20480;-82
2021/01/15 02:28:44;;;;;;;16.52;12.30;;;0.80;95.10;;;;;;5065862;28;20032;-82
2021/01/15 02:31:35;;;;;;;14.70;11.75;;;0.80;94.90;;;;;;5071402;28;20059;-82
2021/01/15 02:34:26;;;;;;;16.75;11.73;;;0.80;94.90;;;;;;5047126;28;20060;-81
2021/01/15 02:37:17;;;;;;;17.15;12.27;;;0.90;95.00;;;;;;5059726;28;20574;-82
2021/01/15 02:40:03;;;;;;;15.48;12.48;;;0.90;94.90;;;;;;5048196;28;20151;-82
2021/01/15 02:42:34;;;;;;;17.25;12.63;;;0.90;94.80;;;;;;5086126;28;20053;-82
2021/01/15 02:45:03;;;;;;;17.73;12.43;;;0.90;95.30;;;;;;5049570;28;21579;-82
2021/01/15 02:47:46;;;;;;;17.02;12.45;;;0.90;95.10;;;;;;5055611;28;20380;-81
2021/01/15 02:50:12;;;;;;;15.73;11.20;;;0.90;95.10;;;;;;5068453;28;20071;-82
2021/01/15 02:52:41;;;;;;;15.63;13.07;;;0.90;95.00;;;;;;5067543;28;20476;-82
2021/01/15 02:55:07;;;;;;;14.55;11.82;;;0.90;95.20;;;;;;5072315;28;20502;-82
2021/01/15 02:57:33;;;;;;;14.60;12.25;;;0.90;95.10;;;;;;5072208;28;20032;-82
2021/01/15 02:59:59;;;;;;;15.07;13.25;;;0.90;95.20;;;;;;5086839;28;20189;-82
2021/01/15 03:02:46;;;;;;;13.93;12.00;;;0.90;95.10;;;;;;5079577;28;20036;-82
2021/01/15 03:05:20;;;;;;;16.02;12.57;;;0.90;95.00;;;;;;5087388;28;20424;-82
2021/01/15 03:07:46;;;;;;;15.02;12.18;;;1.00;95.10;;;;;;5076458;28;20073;-82
2021/01/15 03:10:13;;;;;;;16.80;13.00;;;1.00;95.10;;;;;;5062267;28;20481;-82
2021/01/15 03:12:44;;;;;;;15.25;12.27;;;1.00;95.00;;;;;;5064536;28;20515;-82
2021/01/15 03:15:14;;;;;;;18.10;13.33;;;1.00;94.90;;;;;;5072947;28;20107;-82
2021/01/15 03:17:45;;;;;;;16.23;13.13;;;1.00;95.00;;;;;;5088864;28;20348;-82
2021/01/15 03:20:11;;;;;;;22.27;13.82;;;1.00;95.10;;;;;;5084012;28;20048;-82
2021/01/15 03:22:44;;;;;;;17.40;12.77;;;1.00;95.10;;;;;;5081798;28;20039;-82
2021/01/15 03:25:14;;;;;;;18.45;14.07;;;1.00;95.10;;;;;;5094052;28;20079;-82
2021/01/15 03:27:54;;;;;;;15.00;12.65;;;1.00;95.10;;;;;;5099197;28;20048;-82
2021/01/15 03:30:20;;;;;;;17.20;12.10;;;1.10;95.00;;;;;;5074744;28;20043;-82
2021/01/15 03:32:47;;;;;;;19.73;13.77;;;1.00;95.20;;;;;;5086719;28;20044;-82
2021/01/15 03:35:22;;;;;;;15.05;12.82;;;1.00;95.00;;;;;;5098669;28;20032;-82
2021/01/15 03:38:04;;;;;;;15.75;13.43;;;1.00;95.20;;;;;;5097821;28;20044;-82
2021/01/15 03:40:31;;;;;;;16.88;12.98;;;1.00;95.50;;;;;;5093845;28;20125;-82
2021/01/15 03:42:58;;;;;;;16.55;12.43;;;1.00;95.20;;;;;;5077943;28;20123;-82
2021/01/15 03:45:26;;;;;;;16.65;13.02;;;1.00;95.50;;;;;;5097528;28;20392;-82
2021/01/15 03:47:51;;;;;;;14.15;11.70;;;1.00;95.60;;;;;;5096091;28;20036;-82
2021/01/15 03:50:17;;;;;;;17.20;13.00;;;1.00;95.50;;;;;;5111618;28;20105;-82
2021/01/15 03:52:46;;;;;;;14.60;12.55;;;1.00;95.30;;;;;;5092816;28;20117;-82
2021/01/15 03:55:12;;;;;;;14.35;11.77;;;1.00;95.30;;;;;;5081661;28;20052;-82
2021/01/15 03:57:37;;;;;;;16.65;12.95;;;1.00;95.30;;;;;;5093748;28;20032;-82
2021/01/15 04:00:05;;;;;;;16.88;12.07;;;1.00;95.20;;;;;;5094199;28;20056;-82
2021/01/15 04:02:31;;;;;;;17.17;13.18;;;1.00;95.40;;;;;;5102863;28;20043;-82
2021/01/15 04:04:57;;;;;;;13.90;12.25;;;1.00;95.40;;;;;;5083674;28;20395;-82
2021/01/15 04:07:23;;;;;;;14.70;10.98;;;1.00;95.20;;;;;;5076864;28;20059;-82
2021/01/15 04:09:49;;;;;;;15.27;11.73;;;1.00;95.10;;;;;;5101435;28;20163;-82
2021/01/15 04:12:15;;;;;;;13.93;11.80;;;1.00;95.20;;;;;;5090574;28;20039;-83
2021/01/15 04:14:41;;;;;;;14.77;11.55;;;1.00;95.20;;;;;;5097621;28;20043;-81
2021/01/15 04:17:07;;;;;;;14.80;12.20;;;1.00;95.20;;;;;;5071765;28;20496;-82
2021/01/15 04:19:33;;;;;;;11.55;10.35;;;1.00;94.90;;;;;;5095950;28;20091;-82
2021/01/15 04:21:59;;;;;;;13.82;12.07;;;1.00;95.10;;;;;;5093638;28;20119;-83
2021/01/15 04:24:25;;;;;;;14.02;10.90;;;1.00;95.20;;;;;;5098472;28;20464;-84
2021/01/15 04:26:53;;;;;;;13.30;11.02;;;1.10;95.30;;;;;;5077614;28;20116;-81
2021/01/15 04:29:19;;;;;;;15.73;11.60;;;1.00;95.30;;;;;;5064830;28;20035;-82
2021/01/15 04:31:45;;;;;;;13.32;11.27;;;1.00;95.30;;;;;;5053361;28;20043;-84
2021/01/15 04:34:11;;;;;;;12.45;11.15;;;1.00;95.60;;;;;;5091409;28;20039;-83
2021/01/15 04:36:37;;;;;;;13.27;11.32;;;1.00;95.60;;;;;;5078835;28;20663;-83
2021/01/15 04:39:04;;;;;;;12.88;10.60;;;1.00;95.50;;;;;;5076918;28;20410;-83
2021/01/15 04:41:31;;;;;;;16.52;11.90;;;1.00;95.40;;;;;;5086888;28;20388;-83
2021/01/15 04:43:57;;;;;;;11.52;9.85;;;1.00;95.50;;;;;;5090600;28;20053;-84
2021/01/15 04:46:24;;;;;;;13.48;10.88;;;1.00;95.30;;;;;;5105435;28;20061;-83
2021/01/15 04:48:51;;;;;;;11.38;10.23;;;1.10;95.30;;;;;;5069349;28;20473;-83
2021/01/15 04:51:27;;;;;;;13.93;11.00;;;1.10;95.10;;;;;;5096561;28;20051;-83
2021/01/15 04:54:01;;;;;;;14.93;11.45;;;1.10;95.00;;;;;;5093467;28;20044;-83
2021/01/15 04:56:50;;;;;;;14.02;11.45;;;1.10;95.10;;;;;;5084282;28;20109;-83
2021/01/15 04:59:17;;;;;;;12.40;11.13;;;1.10;95.10;;;;;;5073813;28;20111;-83
2021/01/15 05:02:06;;;;;;;15.48;10.90;;;1.10;94.80;;;;;;5096304;28;20058;-83
2021/01/15 05:04:33;;;;;;;12.48;11.00;;;1.10;95.10;;;;;;5088374;28;20040;-83
2021/01/15 05:07:05;;;;;;;14.38;12.30;;;1.10;94.90;;;;;;5092964;28;20032;-83
2021/01/15 05:09:45;;;;;;;15.02;11.85;;;1.10;95.10;;;;;;5068918;28;20101;-84
2021/01/15 05:12:15;;;;;;;13.48;10.52;;;1.10;95.20;;;;;;5064377;28;20052;-83
2021/01/15 05:14:48;;;;;;;13.65;11.43;;;1.10;95.20;;;;;;5094131;28;20563;-84
2021/01/15 05:17:16;;;;;;;12.68;11.32;;;1.00;95.30;;;;;;5090749;28;20040;-83
2021/01/15 05:19:43;;;;;;;13.15;10.70;;;1.10;95.10;;;;;;5090189;28;20422;-83
2021/01/15 05:22:12;;;;;;;11.30;10.02;;;1.10;94.70;;;;;;5094391;28;20039;-83
2021/01/15 05:24:39;;;;;;;15.68;11.82;;;1.10;94.90;;;;;;5099145;27;20093;-83
2021/01/15 05:30:12;;;;;;;13.45;11.55;;;1.10;95.30;;;;;;5086000;28;20040;-83
2021/01/15 05:32:39;;;;;;;15.13;12.88;;;1.00;95.30;;;;;;5073059;28;20040;-83
2021/01/15 05:35:05;;;;;;;15.15;11.93;;;1.00;95.30;;;;;;5100916;27;20058;-83
2021/01/15 05:37:32;;;;;;;12.80;11.27;;;1.00;95.40;;;;;;5091139;28;20036;-83
2021/01/15 05:39:58;;;;;;;12.20;10.88;;;1.00;95.50;;;;;;5078820;28;20044;-83
2021/01/15 05:42:24;;;;;;;13.05;11.40;;;1.00;95.50;;;;;;5069739;28;20130;-83
2021/01/15 05:44:50;;;;;;;14.75;11.50;;;1.00;95.60;;;;;;5092834;28;20129;-83
2021/01/15 05:47:17;;;;;;;14.40;11.60;;;1.00;95.40;;;;;;5097623;28;20044;-83
2021/01/15 05:49:55;;;;;;;12.52;11.20;;;1.00;95.40;;;;;;5101620;28;20036;-83
2021/01/15 05:52:21;;;;;;;13.77;11.70;;;1.00;95.90;;;;;;5073289;28;20163;-83
2021/01/15 05:54:49;;;;;;;12.73;11.43;;;1.00;95.40;;;;;;5074939;28;20044;-83
2021/01/15 05:57:25;;;;;;;15.75;12.23;;;1.00;95.40;;;;;;5068127;28;20059;-83
2021/01/15 05:59:52;;;;;;;15.70;12.02;;;1.00;95.30;;;;;;5073101;28;20062;-84
2021/01/15 06:02:19;;;;;;;13.30;11.52;;;1.00;95.30;;;;;;5066324;28;20476;-84
2021/01/15 06:04:45;;;;;;;17.33;11.48;;;0.90;95.00;;;;;;5095742;28;20093;-84
2021/01/15 06:07:11;;;;;;;13.30;11.75;;;0.90;95.10;;;;;;5068556;28;20036;-84
2021/01/15 06:09:38;;;;;;;16.00;13.27;;;0.90;94.80;;;;;;5090062;28;20118;-84
2021/01/15 06:12:09;;;;;;;14.93;11.68;;;0.90;95.00;;;;;;5091735;28;20043;-84
2021/01/15 06:14:49;;;;;;;15.40;12.82;;;0.90;94.90;;;;;;5082059;28;20496;-83
2021/01/15 06:17:17;;;;;;;13.95;11.95;;;1.00;94.70;;;;;;5099663;28;20032;-83
2021/01/15 06:19:49;;;;;;;13.57;11.45;;;0.90;94.40;;;;;;5081470;28;20044;-82
2021/01/15 06:22:32;;;;;;;14.68;11.60;;;1.00;94.70;;;;;;5071296;28;20045;-83
2021/01/15 06:25:09;;;;;;;12.82;11.48;;;1.00;94.80;;;;;;5115490;28;20075;-84
2021/01/15 06:27:37;;;;;;;14.60;12.27;;;1.00;94.60;;;;;;5046415;28;20059;-84
2021/01/15 06:30:05;;;;;;;14.27;12.40;;;1.00;94.60;;;;;;5075913;28;20468;-84
2021/01/15 06:32:31;;;;;;;16.20;12.38;;;0.90;94.70;;;;;;5079137;28;20480;-83
2021/01/15 06:34:57;;;;;;;15.80;12.80;;;1.00;94.60;;;;;;5078169;28;20036;-84
2021/01/15 06:37:23;;;;;;;14.98;12.63;;;1.00;94.40;;;;;;5071575;28;20054;-83
2021/01/15 06:40:07;;;;;;;14.02;12.18;;;0.90;94.20;;;;;;5093237;28;20122;-83
2021/01/15 06:42:46;;;;;;;16.63;13.77;;;1.00;94.50;;;;;;5071597;28;20035;-83
2021/01/15 06:45:14;;;;;;;15.77;12.40;;;1.00;94.80;;;;;;5091060;28;20067;-83
2021/01/15 06:47:46;;;;;;;15.02;13.43;;;0.90;94.50;;;;;;5074823;28;20076;-84
2021/01/15 06:50:17;;;;;;;14.00;12.50;;;1.00;94.20;;;;;;5074621;28;20057;-84
2021/01/15 06:52:49;;;;;;;16.10;13.93;;;0.90;94.40;;;;;;5068486;28;20028;-84
2021/01/15 06:55:19;;;;;;;15.50;13.85;;;0.90;94.20;;;;;;5068467;28;20052;-84
2021/01/15 06:57:50;;;;;;;14.93;12.88;;;0.90;94.40;;;;;;5075345;28;20046;-84
2021/01/15 07:00:21;;;;;;;15.93;13.57;;;0.90;94.40;;;;;;5084528;28;20032;-84
2021/01/15 07:03:25;;;;;;;16.10;14.40;;;0.90;94.10;;;;;;5071758;28;20036;-83
2021/01/15 07:05:52;;;;;;;16.30;14.15;;;0.90;94.00;;;;;;5054648;28;20040;-84
2021/01/15 07:08:18;;;;;;;16.02;13.60;;;0.90;94.00;;;;;;5078142;28;20727;-84
2021/01/15 07:10:46;;;;;;;16.20;14.30;;;0.90;93.80;;;;;;5050278;28;20062;-83
2021/01/15 07:13:20;;;;;;;16.70;14.05;;;0.90;93.80;;;;;;5084116;28;20108;-83
2021/01/15 07:15:52;;;;;;;18.00;14.18;;;1.00;94.00;;;;;;5092996;28;20058;-85
2021/01/15 07:19:02;;;;;;;16.60;14.43;;;1.10;93.70;;;;;;5073315;28;20044;-83
2021/01/15 07:21:33;;;;;;;19.05;14.57;;;1.00;94.30;;;;;;5111511;28;20455;-85
2021/01/15 07:24:08;;;;;;;18.73;15.18;;;1.00;93.90;;;;;;5055960;28;20170;-84
2021/01/15 07:26:42;;;;;;;17.02;14.75;;;1.00;94.10;;;;;;5073211;28;20085;-83
2021/01/15 07:29:14;;;;;;;17.45;15.38;;;1.00;94.10;;;;;;5099319;28;20838;-83
2021/01/15 07:31:52;;;;;;;16.95;14.65;;;1.00;93.70;;;;;;5071513;28;20515;-81
2021/01/15 07:34:23;;;;;;;20.38;16.05;;;1.00;93.60;;;;;;5094945;28;20047;-82
2021/01/15 07:36:50;;;;;;;20.02;17.05;;;1.00;94.00;;;;;;5078208;28;20146;-81
2021/01/15 07:39:18;;;;;;;23.20;18.55;;;0.90;94.30;;;;;;5102623;28;20036;-82
2021/01/15 07:41:55;;;;;;;22.58;18.35;;;0.90;94.70;;;;;;5068365;28;20373;-82
2021/01/15 07:44:26;;;;;;;22.27;19.10;;;0.80;94.90;;;;;;5101911;28;20132;-82
2021/01/15 07:46:56;;;;;;;21.23;18.23;;;0.80;95.10;;;;;;5090707;28;20387;-81
2021/01/15 07:49:23;;;;;;;20.63;18.40;;;0.70;95.10;;;;;;5075823;28;20048;-82
2021/01/15 07:52:04;;;;;;;21.35;17.23;;;0.70;95.20;;;;;;5101096;28;20067;-81
2021/01/15 07:54:57;;;;;;;19.88;16.88;;;0.70;95.30;;;;;;5087964;28;20058;-81
2021/01/15 07:57:24;;;;;;;22.60;17.38;;;0.70;95.30;;;;;;5083551;28;20154;-81
2021/01/15 07:59:50;;;;;;;19.23;15.68;;;0.70;95.20;;;;;;5098179;28;20028;-83
2021/01/15 08:02:17;;;;;;;18.13;16.23;;;0.80;95.40;;;;;;5092608;28;20063;-83
2021/01/15 08:04:44;;;;;;;19.35;16.25;;;0.70;95.50;;;;;;5087130;28;20105;-84
2021/01/15 08:07:19;;;;;;;18.83;16.60;;;0.80;95.50;;;;;;5078689;28;20091;-83
2021/01/15 08:09:44;;;;;;;21.67;16.80;;;0.80;95.60;;;;;;5063021;28;20047;-83
2021/01/15 08:12:10;;;;;;;21.08;16.60;;;0.80;95.60;;;;;;5096297;27;20028;-84
2021/01/15 08:14:36;;;;;;;21.00;18.15;;;0.80;95.50;;;;;;5111779;28;20056;-82
2021/01/15 08:17:14;;;;;;;19.27;15.35;;;0.80;95.60;;;;;;5098219;28;20052;-82
2021/01/15 08:19:41;;;;;;;20.05;17.05;;;0.90;95.70;;;;;;5077200;28;20036;-83
2021/01/15 08:22:14;;;;;;;20.90;15.98;;;0.90;95.80;;;;;;5096843;28;20483;-81
2021/01/15 08:24:44;;;;;;;20.83;16.23;;;0.90;95.80;;;;;;5068448;28;20075;-86
2021/01/15 08:27:16;;;;;;;19.70;16.77;;;0.90;96.00;;;;;;5066003;28;20179;-85
2021/01/15 08:29:42;;;;;;;20.02;17.00;;;0.90;95.90;;;;;;5103073;28;20433;-84
2021/01/15 08:32:08;;;;;;;19.10;16.05;;;0.90;96.20;;;;;;5074664;28;20676;-86
2021/01/15 08:34:36;;;;;;;19.92;16.00;;;0.90;95.90;;;;;;5079265;28;20048;-85
2021/01/15 08:37:03;;;;;;;21.17;17.27;;;0.90;96.00;;;;;;5088033;28;20092;-85
2021/01/15 08:39:45;;;;;;;20.10;15.60;;;0.90;96.10;;;;;;5076882;28;20469;-85
2021/01/15 08:42:13;;;;;;;19.92;17.17;;;1.00;96.10;;;;;;5069358;28;20054;-87
2021/01/15 08:44:39;;;;;;;18.63;16.63;;;1.00;96.10;;;;;;5082794;28;20414;-84
2021/01/15 08:47:09;;;;;;;21.08;16.75;;;1.00;96.10;;;;;;5080399;28;20101;-83
2021/01/15 08:49:36;;;;;;;20.08;17.23;;;1.00;96.20;;;;;;5079087;28;20052;-82
2021/01/15 08:52:02;;;;;;;22.00;16.45;;;1.00;96.30;;;;;;5098621;28;20542;-83
2021/01/15 08:54:33;;;;;;;22.25;16.75;;;1.00;96.30;;;;;;5085099;28;20147;-83
2021/01/15 08:57:00;;;;;;;20.20;15.77;;;1.00;96.40;;;;;;5103566;28;20045;-81
2021/01/15 08:59:28;;;;;;;18.80;16.38;;;1.00;96.40;;;;;;5078294;28;20052;-81
2021/01/15 09:01:59;;;;;;;21.65;17.13;;;1.00;96.40;;;;;;5087326;28;20031;-81
2021/01/15 09:04:27;;;;;;;18.50;16.00;;;1.00;96.50;;;;;;5074391;28;20056;-81
2021/01/15 09:06:55;;;;;;;21.15;18.58;;;1.00;96.50;;;;;;5105460;28;20036;-81
2021/01/15 09:09:22;;;;;;;25.40;18.23;;;1.00;96.50;;;;;;5083227;28;20059;-82
2021/01/15 09:11:50;;;;;;;22.85;17.25;;;1.00;96.60;;;;;;5087076;28;20058;-81
2021/01/15 09:14:23;;;;;;;19.52;16.05;;;1.10;96.60;;;;;;5077272;28;20530;-81
2021/01/15 09:16:50;;;;;;;19.98;16.55;;;1.10;96.70;;;;;;5067400;28;20070;-81
2021/01/15 09:19:17;;;;;;;21.15;18.40;;;1.10;96.70;;;;;;5048623;28;20065;-81
2021/01/15 09:21:56;;;;;;;19.92;17.58;;;1.10;96.60;;;;;;5069440;28;20052;-80
2021/01/15 09:24:23;;;;;;;20.02;15.55;;;1.20;96.70;;;;;;5095310;28;20360;-85
2021/01/15 09:26:56;;;;;;;18.85;16.85;;;1.20;96.50;;;;;;5063251;28;20417;-84
2021/01/15 09:29:23;;;;;;;18.88;15.82;;;1.20;96.50;;;;;;5069762;28;20044;-82
2021/01/15 09:31:49;;;;;;;22.17;17.38;;;1.20;96.50;;;;;;5091670;28;20071;-81
2021/01/15 09:34:15;;;;;;;19.38;15.80;;;1.30;96.50;;;;;;5062767;28;20631;-84
2021/01/15 09:36:46;;;;;;;18.98;16.27;;;1.30;96.60;;;;;;5073272;28;20047;-83
2021/01/15 09:39:13;;;;;;;17.52;15.63;;;1.30;96.70;;;;;;5073853;28;20071;-84
2021/01/15 09:41:52;;;;;;;19.48;16.95;;;1.30;96.80;;;;;;5092867;27;20067;-84
2021/01/15 09:44:23;;;;;;;19.13;15.30;;;1.30;96.80;;;;;;5094412;28;20455;-84
2021/01/15 09:46:50;;;;;;;21.17;18.42;;;1.40;96.90;;;;;;5080124;28;20047;-85
2021/01/15 09:49:16;;;;;;;16.88;15.15;;;1.40;96.90;;;;;;5060450;28;20176;-84
2021/01/15 09:51:43;;;;;;;17.25;15.45;;;1.40;96.80;;;;;;5076417;28;20058;-82
2021/01/15 09:54:08;;;;;;;17.35;15.02;;;1.40;96.90;;;;;;5082922;28;20115;-82
2021/01/15 09:56:42;;;;;;;17.73;15.23;;;1.40;96.80;;;;;;5092918;28;20040;-81
2021/01/15 09:59:10;;;;;;;18.42;15.10;;;1.50;96.70;;;;;;5101520;28;20042;-83
2021/01/15 10:01:36;;;;;;;20.58;15.32;;;1.50;96.50;;;;;;5071851;28;20141;-84
2021/01/15 10:04:02;;;;;;;19.52;16.10;;;1.50;96.60;;;;;;5107729;28;20048;-83
2021/01/15 10:06:28;;;;;;;18.52;14.43;;;1.50;96.60;;;;;;5074017;28;20146;-86
2021/01/15 10:08:58;;;;;;;18.30;15.70;;;1.60;96.40;;;;;;5074796;28;20134;-84
2021/01/15 10:11:26;;;;;;;19.92;15.70;;;1.60;96.40;;;;;;5101704;28;20032;-85
2021/01/15 10:13:56;;;;;;;17.05;13.98;;;1.60;96.60;;;;;;5087568;28;20063;-85
2021/01/15 10:16:23;;;;;;;17.50;14.23;;;1.60;96.40;;;;;;5069237;28;20539;-85
2021/01/15 10:18:49;;;;;;;16.13;14.40;;;1.60;96.40;;;;;;5089145;27;20467;-84
2021/01/15 10:21:23;;;;;;;16.23;14.52;;;1.60;96.40;;;;;;5079642;28;20108;-83
2021/01/15 10:23:51;;;;;;;15.02;13.43;;;1.60;96.40;;;;;;5079628;28;20040;-84
2021/01/15 10:26:26;;;;;;;14.98;13.38;;;1.60;96.20;;;;;;5082873;28;20052;-83
2021/01/15 10:28:57;;;;;;;16.75;14.80;;;1.60;96.40;;;;;;5075802;28;20036;-82
2021/01/15 10:31:34;;;;;;;17.35;13.80;;;1.60;96.30;;;;;;5095364;28;20032;-85
2021/01/15 10:34:02;;;;;;;15.63;13.90;;;1.70;96.60;;;;;;5062579;28;20159;-83
2021/01/15 10:36:33;;;;;;;17.75;13.82;;;1.70;96.50;;;;;;5096414;28;20115;-84
2021/01/15 10:39:00;;;;;;;15.57;13.50;;;1.70;96.50;;;;;;5091417;28;20087;-85
2021/01/15 10:41:37;;;;;;;15.25;11.80;;;1.70;96.30;;;;;;5074615;28;20388;-85
2021/01/15 10:44:05;;;;;;;14.40;12.52;;;1.80;96.20;;;;;;5064975;28;20059;-84
2021/01/15 10:46:39;;;;;;;15.32;11.60;;;1.80;96.30;;;;;;5101496;28;20439;-85
2021/01/15 10:49:06;;;;;;;15.40;10.98;;;1.80;96.40;;;;;;5070249;28;20070;-86
2021/01/15 10:51:32;;;;;;;13.43;11.27;;;1.80;96.30;;;;;;5084154;28;20052;-84
2021/01/15 10:53:59;;;;;;;13.00;10.18;;;1.80;96.10;;;;;;5088415;28;20126;-85
2021/01/15 10:56:33;;;;;;;14.05;10.55;;;1.80;96.10;;;;;;5072589;28;20487;-81
2021/01/15 10:58:58;;;;;;;11.18;9.70;;;1.80;95.80;;;;;;5085916;28;20080;-82
2021/01/15 11:01:36;;;;;;;9.75;8.60;;;1.80;95.50;;;;;;5103841;28;20047;-83
2021/01/15 11:04:03;;;;;;;12.68;9.82;;;1.90;95.30;;;;;;5063431;28;20044;-84
2021/01/15 11:06:29;;;;;;;10.63;9.52;;;1.90;94.90;;;;;;5092039;28;20051;-87
2021/01/15 11:08:55;;;;;;;13.65;11.18;;;1.90;95.10;;;;;;5069457;28;20040;-86
2021/01/15 11:11:21;;;;;;;13.20;10.65;;;2.00;95.30;;;;;;5055179;28;20044;-86
2021/01/15 11:13:47;;;;;;;12.02;10.43;;;2.10;95.20;;;;;;5062745;28;20563;-84
2021/01/15 11:16:14;;;;;;;14.05;11.05;;;2.00;95.40;;;;;;5076962;28;20044;-87
2021/01/15 11:18:41;;;;;;;11.30;10.10;;;2.00;95.40;;;;;;5078790;28;20072;-84
2021/01/15 11:21:37;;;;;;;11.25;10.05;;;2.00;95.30;;;;;;5076561;28;20059;-85
2021/01/15 11:24:03;;;;;;;10.63;9.55;;;2.10;95.20;;;;;;5056092;28;20468;-84
2021/01/15 11:26:31;;;;;;;11.00;9.90;;;2.10;94.90;;;;;;5048943;28;20158;-85
2021/01/15 11:29:00;;;;;;;11.85;9.90;;;2.10;95.10;;;;;;5050895;28;20053;-85
2021/01/15 11:31:30;;;;;;;14.48;9.77;;;2.10;95.00;;;;;;5054698;28;20044;-85
2021/01/15 11:33:56;;;;;;;10.90;9.02;;;2.10;95.20;;;;;;5055557;28;20052;-84
2021/01/15 11:36:22;;;;;;;12.85;9.60;;;2.10;95.00;;;;;;5050661;28;20178;-84
2021/01/15 11:38:50;;;;;;;14.60;10.07;;;2.10;94.60;;;;;;5055696;28;20106;-85
2021/01/15 11:41:17;;;;;;;11.95;9.90;;;2.10;94.80;;;;;;5065940;28;20057;-84
2021/01/15 11:43:43;;;;;;;11.02;9.27;;;2.10;94.50;;;;;;5055461;28;20476;-85
2021/01/15 11:46:10;;;;;;;12.40;9.50;;;2.10;94.10;;;;;;5050189;28;20155;-85
2021/01/15 11:48:37;;;;;;;10.82;9.20;;;2.10;93.90;;;;;;5069716;28;20048;-86
2021/01/15 11:51:05;;;;;;;10.63;9.02;;;2.20;94.10;;;;;;5049542;28;20163;-85
2021/01/15 11:53:35;;;;;;;10.98;9.43;;;2.20;94.00;;;;;;5047196;28;20408;-85
2021/01/15 11:56:03;;;;;;;10.45;9.10;;;2.20;93.60;;;;;;5029881;28;20045;-87
2021/01/15 11:58:29;;;;;;;10.65;9.10;;;2.20;94.00;;;;;;5054108;28;20123;-86
2021/01/15 12:00:56;;;;;;;10.25;7.47;;;2.20;94.20;;;;;;5082427;28;20130;-85
2021/01/15 12:03:22;;;;;;;10.13;7.80;;;2.20;92.90;;;;;;5071939;28;20082;-85
2021/01/15 12:06:01;;;;;;;12.73;7.78;;;2.20;92.00;;;;;;5075226;28;20480;-85
2021/01/15 12:08:26;;;;;;;11.95;8.52;;;2.20;92.10;;;;;;5087996;28;20087;-86
2021/01/15 12:10:55;;;;;;;9.32;7.95;;;2.20;91.90;;;;;;5076722;28;20745;-85
2021/01/15 12:13:22;;;;;;;10.35;8.05;;;2.20;91.90;;;;;;5070273;28;20064;-86
2021/01/15 12:15:49;;;;;;;11.88;8.50;;;2.20;91.90;;;;;;5074627;28;20069;-86
2021/01/15 12:18:16;;;;;;;10.02;8.20;;;2.20;91.80;;;;;;5061757;28;20063;-86
2021/01/15 12:20:41;;;;;;;9.68;8.50;;;2.20;91.00;;;;;;5074674;28;20040;-85
2021/01/15 12:23:08;;;;;;;9.13;7.40;;;2.30;91.20;;;;;;5075710;28;20743;-84
2021/01/15 12:25:38;;;;;;;8.95;7.30;;;2.20;90.30;;;;;;5076098;28;20056;-84
2021/01/15 12:28:09;;;;;;;9.68;7.72;;;2.20;90.20;;;;;;5096340;27;20039;-83
2021/01/15 12:30:35;;;;;;;9.93;7.07;;;2.20;90.00;;;;;;5081970;28;20056;-83
2021/01/15 12:33:13;;;;;;;10.10;7.50;;;2.20;90.30;;;;;;5075893;28;20090;-84
2021/01/15 12:35:40;;;;;;;11.02;8.00;;;2.30;90.00;;;;;;5100758;28;20080;-85
2021/01/15 12:38:10;;;;;;;9.60;8.00;;;2.20;88.90;;;;;;5077475;28;20785;-87
2021/01/15 12:40:37;;;;;;;9.10;7.90;;;2.20;90.00;;;;;;5094160;28;20036;-86
2021/01/15 12:43:04;;;;;;;9.57;7.97;;;2.30;91.00;;;;;;5075798;28;20127;-84
2021/01/15 12:45:44;;;;;;;9.70;7.97;;;2.10;90.00;;;;;;5082993;28;20134;-85
2021/01/15 12:48:10;;;;;;;9.48;7.57;;;2.10;90.00;;;;;;5088566;28;20075;-85
2021/01/15 12:50:37;;;;;;;10.80;8.13;;;2.10;88.50;;;;;;5074732;28;20048;-83
2021/01/15 12:53:03;;;;;;;10.02;8.13;;;2.00;90.00;;;;;;5093382;28;20056;-85
2021/01/15 12:55:30;;;;;;;10.90;8.88;;;2.00;88.90;;;;;;5072678;28;20406;-85